Time;durP1;ratioP1;P1;durP2;ratioP2;P2;SDS_P1;SDS_P2;PMS_P1;PMS_P2;Temp;Humidity;BMP_temperature;BMP_pressure;BME280_temperature;BME280_humidity;BME280_pressure;Samples;Min_cycle;Max_cycle;Signal;HPM_P1;HPM_P2
2024/03/04 00:01:08;;;;;;;14.20;9.90;;;;;;;8.63;70.20;94836.47;4989013;28;20175;-70
2024/03/04 00:03:33;;;;;;;13.20;10.53;;;;;;;8.61;70.72;94838.34;4990521;28;20195;-71
2024/03/04 00:06:00;;;;;;;14.20;11.50;;;;;;;8.48;70.47;94852.16;4990313;28;20172;-71
2024/03/04 00:08:25;;;;;;;15.23;11.40;;;;;;;8.60;70.29;94854.97;4989636;28;20184;-71
2024/03/04 00:10:51;;;;;;;16.30;11.47;;;;;;;8.55;70.80;94857.00;4971706;28;20455;-70
2024/03/04 00:13:17;;;;;;;19.60;11.03;;;;;;;8.66;70.30;94858.03;4989238;28;20672;-71
2024/03/04 00:15:42;;;;;;;12.77;10.50;;;;;;;8.55;69.95;94870.94;4988582;28;20412;-71
2024/03/04 00:18:08;;;;;;;12.53;11.23;;;;;;;8.50;70.71;94861.66;4971140;28;20173;-69
2024/03/04 00:20:33;;;;;;;16.87;11.10;;;;;;;8.58;70.66;94869.91;4988355;28;20169;-71
2024/03/04 00:23:00;;;;;;;12.80;9.60;;;;;;;8.53;70.81;94878.03;4987840;28;20465;-71
2024/03/04 00:25:25;;;;;;;14.07;10.20;;;;;;;8.64;70.29;94877.38;4988271;28;20179;-71
2024/03/04 00:27:51;;;;;;;12.20;10.23;;;;;;;8.63;70.67;94873.09;4988604;28;20412;-70
2024/03/04 00:30:16;;;;;;;11.07;9.90;;;;;;;8.66;70.10;94873.72;4988199;28;20223;-70
2024/03/04 00:32:42;;;;;;;15.13;10.67;;;;;;;8.63;69.81;94883.53;4988138;28;20201;-71
2024/03/04 00:35:13;;;;;;;11.77;9.83;;;;;;;8.66;70.13;94888.56;4988937;28;20181;-70
2024/03/04 00:37:39;;;;;;;17.67;9.63;;;;;;;8.59;70.02;94889.88;4988256;28;20226;-71
2024/03/04 00:40:05;;;;;;;13.40;9.57;;;;;;;8.58;69.83;94888.22;4988762;28;21014;-69
2024/03/04 00:42:32;;;;;;;14.87;9.70;;;;;;;8.51;70.41;94879.88;4987953;28;20228;-71
2024/03/04 00:45:00;;;;;;;12.83;9.40;;;;;;;8.63;69.32;94875.69;4988345;28;20420;-71
2024/03/04 00:47:26;;;;;;;14.97;10.20;;;;;;;8.65;69.44;94876.44;4988036;28;20444;-71
2024/03/04 00:49:51;;;;;;;12.43;8.67;;;;;;;8.62;69.20;94882.72;4987034;28;20454;-71
2024/03/04 00:52:17;;;;;;;13.27;9.57;;;;;;;8.53;69.60;94893.72;4987476;28;20197;-71
2024/03/04 00:54:43;;;;;;;15.40;9.93;;;;;;;8.48;70.19;94887.94;4988297;28;20176;-71
2024/03/04 00:57:09;;;;;;;12.97;9.80;;;;;;;8.50;70.10;94885.19;4988648;28;20203;-71
2024/03/04 00:59:37;;;;;;;13.67;9.30;;;;;;;8.51;69.22;94885.13;4988700;28;20448;-71
2024/03/04 01:02:04;;;;;;;11.37;8.90;;;;;;;8.60;69.53;94888.97;4989388;28;20444;-70
2024/03/04 01:04:30;;;;;;;15.73;10.80;;;;;;;8.47;69.24;94886.22;4990010;28;20416;-70
2024/03/04 01:06:56;;;;;;;13.83;10.23;;;;;;;8.52;69.74;94892.03;4988187;28;20462;-70
2024/03/04 01:09:21;;;;;;;13.87;10.20;;;;;;;8.46;69.40;94901.09;4988366;28;20192;-71
2024/03/04 01:11:47;;;;;;;12.70;9.97;;;;;;;8.40;69.43;94903.22;4987992;28;20432;-70
2024/03/04 01:14:13;;;;;;;12.03;9.53;;;;;;;8.42;69.49;94906.59;4987670;28;20231;-70
2024/03/04 01:16:41;;;;;;;12.73;9.30;;;;;;;8.37;69.33;94911.22;4988445;28;20255;-71
2024/03/04 01:19:07;;;;;;;12.20;8.13;;;;;;;8.33;69.72;94917.53;4988767;28;20165;-70
2024/03/04 01:21:32;;;;;;;11.03;8.90;;;;;;;8.28;69.81;94920.44;4988290;28;20557;-70
2024/03/04 01:23:58;;;;;;;12.47;8.30;;;;;;;8.28;69.25;94929.09;4988693;28;20439;-71
2024/03/04 01:26:23;;;;;;;12.77;8.63;;;;;;;8.27;69.88;94924.81;4988292;28;20181;-71
2024/03/04 01:28:49;;;;;;;11.07;9.90;;;;;;;8.24;70.30;94927.63;4988009;28;20173;-70
2024/03/04 01:31:15;;;;;;;10.87;9.00;;;;;;;8.20;71.06;94926.09;4987597;28;20197;-69
2024/03/04 01:33:45;;;;;;;12.97;10.83;;;;;;;8.27;70.32;94934.44;4986977;28;20731;-71
2024/03/04 01:36:11;;;;;;;16.87;11.10;;;;;;;8.15;70.68;94938.59;4988117;28;20435;-71
2024/03/04 01:38:37;;;;;;;15.30;11.23;;;;;;;8.19;71.03;94934.03;4989973;28;20727;-72
2024/03/04 01:41:03;;;;;;;15.80;11.60;;;;;;;8.15;71.09;94927.28;4987734;28;20231;-70
2024/03/04 01:43:29;;;;;;;16.23;11.47;;;;;;;8.20;71.23;94935.72;4987939;28;20197;-71
2024/03/04 01:45:54;;;;;;;14.57;12.07;;;;;;;8.20;70.98;94935.72;4988136;28;21292;-71
2024/03/04 01:48:20;;;;;;;16.20;11.83;;;;;;;8.17;71.01;94936.75;4987899;28;20232;-70
2024/03/04 01:50:45;;;;;;;14.30;11.97;;;;;;;8.09;71.06;94931.09;4986714;28;20192;-72
2024/03/04 01:53:12;;;;;;;15.03;11.73;;;;;;;8.04;71.42;94922.69;4987000;28;20204;-69
2024/03/04 01:55:41;;;;;;;14.80;11.60;;;;;;;8.12;71.10;94922.25;4987454;28;20200;-72
2024/03/04 01:58:11;;;;;;;15.40;12.33;;;;;;;8.03;71.12;94927.09;4987710;28;21013;-70
2024/03/04 02:00:40;;;;;;;17.00;11.63;;;;;;;8.07;71.28;94932.97;4987526;28;20420;-71
2024/03/04 02:03:07;;;;;;;16.23;12.27;;;;;;;8.09;70.46;94941.56;4987303;28;20443;-71
2024/03/04 02:05:33;;;;;;;18.07;11.67;;;;;;;8.13;70.37;94937.84;4989431;28;20404;-71
2024/03/04 02:07:59;;;;;;;16.97;12.37;;;;;;;8.09;70.14;94949.41;4990561;28;20522;-70
2024/03/04 02:10:25;;;;;;;16.83;13.63;;;;;;;7.97;71.55;94961.38;4990528;28;20573;-71
2024/03/04 02:12:50;;;;;;;16.10;12.57;;;;;;;7.84;71.37;94970.84;4991103;28;20448;-70
2024/03/04 02:15:16;;;;;;;12.73;11.10;;;;;;;7.76;71.45;94979.09;4987261;28;20172;-71
2024/03/04 02:17:41;;;;;;;17.10;13.20;;;;;;;7.72;71.68;94995.84;4986835;28;20180;-71
2024/03/04 02:20:15;;;;;;;16.87;12.73;;;;;;;7.57;72.19;95001.94;4986847;28;20208;-70
2024/03/04 02:22:41;;;;;;;17.93;13.37;;;;;;;7.61;72.36;94998.25;4986506;28;20223;-70
2024/03/04 02:25:07;;;;;;;16.00;12.43;;;;;;;7.64;72.64;94998.06;4987031;28;20419;-71
2024/03/04 02:27:35;;;;;;;19.27;14.47;;;;;;;7.72;72.63;94995.03;4986530;28;20415;-70
2024/03/04 02:30:04;;;;;;;16.73;12.70;;;;;;;7.74;72.00;94996.63;4986620;28;20577;-71
2024/03/04 02:32:29;;;;;;;13.50;11.60;;;;;;;7.89;71.45;94996.69;4986484;28;20805;-70
2024/03/04 02:35:00;;;;;;;16.20;11.20;;;;;;;7.80;72.39;95008.50;4986086;28;20415;-71
2024/03/04 02:37:25;;;;;;;14.90;11.73;;;;;;;7.82;72.19;95004.88;4986433;28;20271;-71
2024/03/04 02:39:55;;;;;;;17.60;11.53;;;;;;;7.83;71.88;95005.72;4986968;28;21365;-69
2024/03/04 02:42:20;;;;;;;16.40;13.17;;;;;;;7.80;72.28;95014.56;4986614;28;20732;-70
2024/03/04 02:44:46;;;;;;;14.10;11.23;;;;;;;7.74;72.33;95014.91;4987036;28;20426;-71
2024/03/04 02:47:11;;;;;;;17.23;11.93;;;;;;;7.61;72.69;95017.34;4989246;28;20173;-71
2024/03/04 02:49:36;;;;;;;12.87;11.67;;;;;;;7.66;72.25;95014.50;4990943;28;20172;-71
2024/03/04 02:52:02;;;;;;;13.80;11.40;;;;;;;7.58;72.76;95016.66;4990703;28;20195;-72
2024/03/04 02:54:28;;;;;;;16.20;11.57;;;;;;;7.65;72.29;95025.84;4991629;28;20209;-70
2024/03/04 02:56:55;;;;;;;17.80;11.70;;;;;;;7.71;71.81;95020.28;4993094;28;20223;-70
2024/03/04 02:59:20;;;;;;;15.43;11.23;;;;;;;7.61;71.89;95024.34;4990958;28;20176;-70
2024/03/04 03:01:49;;;;;;;13.27;10.60;;;;;;;7.62;71.61;95024.25;4990552;28;20828;-70
2024/03/04 03:04:15;;;;;;;14.50;12.27;;;;;;;7.53;71.60;95035.19;4990897;28;20258;-70
2024/03/04 03:06:42;;;;;;;14.80;11.43;;;;;;;7.64;71.29;95034.63;4990420;28;20784;-71
2024/03/04 03:09:08;;;;;;;16.10;11.00;;;;;;;7.51;71.88;95044.88;4990281;28;20443;-69
2024/03/04 03:11:34;;;;;;;11.10;9.90;;;;;;;7.68;71.76;95046.59;4990290;28;20519;-70
2024/03/04 03:13:59;;;;;;;23.30;12.13;;;;;;;7.58;72.12;95046.25;4989495;28;20578;-70
2024/03/04 03:16:25;;;;;;;14.57;10.50;;;;;;;7.65;71.48;95044.13;4989492;28;20176;-70
2024/03/04 03:18:51;;;;;;;13.70;11.17;;;;;;;7.61;71.38;95050.44;4989182;28;20177;-70
2024/03/04 03:21:17;;;;;;;13.40;10.97;;;;;;;7.58;71.26;95055.81;4988997;28;20183;-70
2024/03/04 03:23:44;;;;;;;14.67;11.33;;;;;;;7.48;71.95;95059.84;4989081;28;20438;-70
2024/03/04 03:26:10;;;;;;;14.13;10.90;;;;;;;7.61;71.93;95076.56;4989279;28;20478;-70
2024/03/04 03:28:40;;;;;;;12.70;10.43;;;;;;;7.56;71.78;95075.94;4989189;28;20396;-70
2024/03/04 03:31:06;;;;;;;13.20;11.37;;;;;;;7.52;72.24;95072.66;4988768;28;20238;-71
2024/03/04 03:33:33;;;;;;;13.87;11.23;;;;;;;7.59;71.65;95081.00;4988679;28;20464;-70
2024/03/04 03:35:59;;;;;;;16.60;10.90;;;;;;;7.55;71.46;95080.31;4988706;28;21002;-70
2024/03/04 03:38:24;;;;;;;11.80;10.03;;;;;;;7.54;71.92;95085.66;4988699;28;20456;-71
2024/03/04 03:40:49;;;;;;;13.93;10.47;;;;;;;7.43;71.57;95079.19;4988226;28;20808;-70
2024/03/04 03:43:17;;;;;;;12.30;10.63;;;;;;;7.45;72.11;95088.75;4988405;28;20201;-69
2024/03/04 03:45:43;;;;;;;13.00;11.37;;;;;;;7.51;71.74;95091.00;4988698;28;20181;-71
2024/03/04 03:48:09;;;;;;;11.93;10.70;;;;;;;7.37;71.84;95089.97;4988576;28;20408;-70
2024/03/04 03:50:35;;;;;;;13.90;9.83;;;;;;;7.32;72.07;95104.19;4988439;28;20208;-70
2024/03/04 03:53:00;;;;;;;13.80;9.37;;;;;;;7.45;71.62;95107.00;4988319;28;21005;-71
2024/03/04 03:55:26;;;;;;;21.80;10.93;;;;;;;7.36;71.73;95116.16;4988096;28;20215;-70
2024/03/04 03:57:51;;;;;;;15.60;11.10;;;;;;;7.51;72.08;95114.50;4987319;28;20172;-70
2024/03/04 04:00:17;;;;;;;13.90;10.30;;;;;;;7.42;71.49;95113.22;4987991;28;20207;-70
2024/03/04 04:02:43;;;;;;;14.97;11.70;;;;;;;7.45;71.43;95114.84;4988049;28;20192;-71
2024/03/04 04:05:09;;;;;;;14.00;11.37;;;;;;;7.35;72.65;95123.13;4988299;28;20424;-70
2024/03/04 04:07:34;;;;;;;11.73;10.03;;;;;;;7.52;72.09;95130.09;4988540;28;20267;-70
2024/03/04 04:09:59;;;;;;;15.57;10.57;;;;;;;7.58;71.54;95134.13;4988050;28;20599;-70
2024/03/04 04:12:25;;;;;;;13.80;10.57;;;;;;;7.57;71.57;95143.75;4988220;28;20197;-70
2024/03/04 04:14:50;;;;;;;15.87;11.40;;;;;;;7.58;71.49;95152.41;4989108;28;20172;-70
2024/03/04 04:17:16;;;;;;;16.83;11.43;;;;;;;7.59;71.63;95151.50;4988866;28;20173;-70
2024/03/04 04:19:41;;;;;;;14.60;11.20;;;;;;;7.57;71.38;95150.75;4988901;28;21083;-70
2024/03/04 04:22:06;;;;;;;14.73;10.70;;;;;;;7.55;70.81;95155.19;4988707;28;20267;-70
2024/03/04 04:24:32;;;;;;;15.33;11.70;;;;;;;7.53;71.11;95159.63;4988514;28;20177;-71
2024/03/04 04:26:57;;;;;;;16.00;10.83;;;;;;;7.53;71.92;95164.88;4988473;28;20227;-68
2024/03/04 04:29:23;;;;;;;15.13;11.40;;;;;;;7.43;72.32;95169.72;4988453;28;20169;-70
2024/03/04 04:31:48;;;;;;;15.40;10.73;;;;;;;7.49;71.60;95171.16;4987618;28;20846;-69
2024/03/04 04:34:14;;;;;;;13.50;11.10;;;;;;;7.54;71.24;95174.41;4988340;28;20200;-70
2024/03/04 04:36:50;;;;;;;18.50;10.87;;;;;;;7.60;71.60;95179.28;4988471;28;20219;-70
2024/03/04 04:39:15;;;;;;;14.53;11.10;;;;;;;7.64;71.39;95183.44;4988188;28;20196;-70
2024/03/04 04:41:40;;;;;;;16.53;12.10;;;;;;;7.53;71.95;95188.34;4987762;28;20447;-70
2024/03/04 04:44:06;;;;;;;15.27;11.10;;;;;;;7.62;71.68;95193.09;4988460;28;20197;-70
2024/03/04 04:46:32;;;;;;;14.27;10.37;;;;;;;7.63;71.78;95197.44;4988796;28;20183;-70
2024/03/04 04:48:57;;;;;;;17.50;12.10;;;;;;;7.59;71.84;95206.34;4988383;28;20279;-70
2024/03/04 04:51:23;;;;;;;19.10;12.43;;;;;;;7.57;71.70;95213.38;4987901;28;20247;-70
2024/03/04 04:53:49;;;;;;;16.93;11.63;;;;;;;7.64;71.16;95215.59;4988533;28;20200;-70
2024/03/04 04:56:17;;;;;;;14.03;12.63;;;;;;;7.58;71.70;95217.69;4988455;28;20196;-70
2024/03/04 04:58:43;;;;;;;14.87;12.57;;;;;;;7.60;71.28;95216.66;4988492;28;20180;-70
2024/03/04 05:01:09;;;;;;;19.37;13.00;;;;;;;7.62;71.31;95227.88;4988448;28;20461;-70
2024/03/04 05:03:35;;;;;;;21.27;13.23;;;;;;;7.66;72.10;95227.75;4988315;28;20439;-70
2024/03/04 05:06:01;;;;;;;14.80;12.40;;;;;;;7.64;71.72;95239.09;4987933;28;20180;-70
2024/03/04 05:08:27;;;;;;;16.03;12.33;;;;;;;7.66;71.85;95235.59;4988346;28;20415;-71
2024/03/04 05:10:53;;;;;;;15.80;11.03;;;;;;;7.67;71.89;95232.88;4987757;28;20460;-71
2024/03/04 05:13:20;;;;;;;16.60;11.90;;;;;;;7.54;72.18;95237.88;4987958;28;20212;-70
2024/03/04 05:15:45;;;;;;;13.60;11.20;;;;;;;7.60;72.52;95245.41;4987524;28;20412;-70
2024/03/04 05:18:11;;;;;;;16.17;12.30;;;;;;;7.74;72.01;95236.84;4987022;28;20412;-70
2024/03/04 05:20:36;;;;;;;16.97;12.27;;;;;;;7.69;72.60;95238.88;4986685;28;20176;-71
2024/03/04 05:23:02;;;;;;;20.67;14.17;;;;;;;7.75;71.92;95240.34;4987429;28;20252;-70
2024/03/04 05:25:27;;;;;;;16.33;13.20;;;;;;;7.72;71.44;95254.38;4987811;28;20208;-70
2024/03/04 05:27:52;;;;;;;16.60;12.90;;;;;;;7.70;72.10;95253.63;4987304;28;20192;-71
2024/03/04 05:30:19;;;;;;;15.53;13.57;;;;;;;7.66;72.73;95259.09;4987831;28;20207;-69
2024/03/04 05:32:44;;;;;;;16.60;14.47;;;;;;;7.78;72.28;95266.28;4987348;28;20255;-70
2024/03/04 05:35:12;;;;;;;18.23;13.13;;;;;;;7.77;71.77;95260.22;4987253;28;20412;-70
2024/03/04 05:37:41;;;;;;;18.50;13.63;;;;;;;7.77;72.08;95259.34;4982734;28;20184;-70
2024/03/04 05:40:09;;;;;;;18.50;13.83;;;;;;;7.76;72.42;95257.69;4977855;28;20474;-71
2024/03/04 05:42:39;;;;;;;17.83;14.20;;;;;;;7.84;72.33;95264.22;4966939;28;20444;-69
2024/03/04 05:45:07;;;;;;;18.07;13.23;;;;;;;7.75;72.78;95271.69;4984909;28;20855;-70
2024/03/04 05:47:34;;;;;;;19.63;14.33;;;;;;;7.72;72.86;95277.03;4968877;28;20816;-71
2024/03/04 05:49:59;;;;;;;19.80;14.50;;;;;;;7.77;72.67;95273.28;4986402;28;20456;-71
2024/03/04 05:52:25;;;;;;;22.60;14.30;;;;;;;7.66;73.21;95283.41;4985913;28;20444;-70
2024/03/04 05:54:51;;;;;;;25.77;16.50;;;;;;;7.75;72.78;95288.19;4985849;28;20248;-70
2024/03/04 05:57:16;;;;;;;22.13;13.57;;;;;;;7.74;72.77;95291.69;4984559;28;20185;-70
2024/03/04 05:59:42;;;;;;;16.73;12.50;;;;;;;7.82;72.41;95294.78;4984247;28;20422;-71
2024/03/04 06:02:07;;;;;;;28.77;16.50;;;;;;;7.96;72.82;95301.91;4984465;28;20181;-69
2024/03/04 06:04:33;;;;;;;17.20;14.60;;;;;;;8.04;71.79;95299.75;4984920;28;20644;-71
2024/03/04 06:06:58;;;;;;;21.13;14.67;;;;;;;7.95;72.92;95307.22;4985375;28;20180;-71
2024/03/04 06:09:26;;;;;;;23.30;14.53;;;;;;;7.98;72.04;95309.66;4983953;28;20180;-70
2024/03/04 06:11:51;;;;;;;19.50;14.63;;;;;;;7.95;72.86;95313.28;4984314;28;20363;-70
2024/03/04 06:14:18;;;;;;;23.80;14.53;;;;;;;7.94;72.43;95316.00;4985478;28;20492;-70
2024/03/04 06:16:44;;;;;;;20.50;14.03;;;;;;;7.95;73.29;95315.88;4986285;28;20176;-70
2024/03/04 06:19:09;;;;;;;23.10;15.27;;;;;;;7.96;73.49;95317.59;4985796;28;20412;-71
2024/03/04 06:21:36;;;;;;;20.83;16.30;;;;;;;7.97;73.00;95324.50;4987588;28;20667;-69
2024/03/04 06:24:02;;;;;;;19.77;15.00;;;;;;;7.93;73.00;95322.97;4989639;28;20838;-70
2024/03/04 06:26:28;;;;;;;20.80;15.37;;;;;;;7.97;73.99;95329.72;4989163;28;20422;-70
2024/03/04 06:28:53;;;;;;;35.50;18.13;;;;;;;7.75;74.61;95329.97;4987937;28;20486;-71
2024/03/04 06:31:19;;;;;;;23.07;16.20;;;;;;;8.10;74.36;95327.31;4984867;28;20767;-70
2024/03/04 06:33:44;;;;;;;22.10;17.17;;;;;;;7.94;76.56;95329.03;4980937;28;20201;-71
2024/03/04 06:36:09;;;;;;;24.90;17.00;;;;;;;8.36;74.81;95333.84;4978464;28;20197;-71
2024/03/04 06:38:35;;;;;;;26.30;18.47;;;;;;;8.48;74.33;95332.38;4985433;28;20177;-70
2024/03/04 06:41:03;;;;;;;24.93;17.80;;;;;;;8.44;74.70;95331.69;4991633;28;20706;-71
2024/03/04 06:43:28;;;;;;;29.17;17.50;;;;;;;8.55;74.16;95338.09;5000704;28;20201;-70
2024/03/04 06:45:54;;;;;;;29.90;19.43;;;;;;;8.58;73.94;95336.19;4991450;28;20438;-71
2024/03/04 06:48:19;;;;;;;28.93;18.57;;;;;;;8.64;73.82;95354.16;4980456;28;20188;-71
2024/03/04 06:50:46;;;;;;;26.60;18.07;;;;;;;8.58;74.69;95351.88;4982054;28;20609;-69
2024/03/04 06:53:12;;;;;;;25.83;18.50;;;;;;;8.59;73.94;95358.78;4980727;28;20954;-69
2024/03/04 06:55:37;;;;;;;32.37;19.87;;;;;;;8.57;74.36;95354.56;4983132;28;20440;-69
2024/03/04 06:58:03;;;;;;;22.30;17.47;;;;;;;8.58;74.18;95354.50;4979124;28;20182;-67
2024/03/04 07:00:29;;;;;;;28.33;18.03;;;;;;;8.75;74.37;95352.75;4982504;28;20200;-67
2024/03/04 07:02:55;;;;;;;26.87;19.13;;;;;;;8.66;73.63;95348.84;4984496;28;20459;-68
2024/03/04 07:05:20;;;;;;;29.87;20.20;;;;;;;8.80;73.73;95362.03;4980640;28;20176;-67
2024/03/04 07:07:45;;;;;;;28.83;20.17;;;;;;;8.97;72.55;95362.91;4979846;28;20189;-68
2024/03/04 07:10:11;;;;;;;26.27;18.53;;;;;;;8.76;73.14;95357.88;4981257;28;20870;-67
2024/03/04 07:12:37;;;;;;;28.73;19.83;;;;;;;8.71;73.99;95364.28;4984618;28;20952;-69
2024/03/04 07:15:06;;;;;;;29.13;20.80;;;;;;;8.74;74.07;95372.84;4982809;28;20661;-68
2024/03/04 07:17:31;;;;;;;32.20;20.20;;;;;;;8.78;73.36;95370.88;4977890;28;20436;-68
2024/03/04 07:19:57;;;;;;;30.10;20.30;;;;;;;8.71;73.52;95377.38;4978095;28;20433;-68
2024/03/04 07:22:22;;;;;;;27.10;18.07;;;;;;;8.73;73.38;95386.81;4980036;28;20298;-66
2024/03/04 07:24:48;;;;;;;25.93;19.80;;;;;;;8.87;73.11;95380.88;4984523;28;20204;-67
2024/03/04 07:27:14;;;;;;;33.53;21.43;;;;;;;8.91;72.97;95385.00;4984128;28;20538;-67
2024/03/04 07:29:40;;;;;;;43.87;22.77;;;;;;;8.88;73.30;95393.88;4974885;28;20198;-66
2024/03/04 07:32:06;;;;;;;30.97;19.03;;;;;;;8.89;73.19;95400.78;4982961;28;20450;-68
2024/03/04 07:34:31;;;;;;;35.93;18.67;;;;;;;8.93;72.61;95392.75;4982476;28;20208;-68
2024/03/04 07:36:57;;;;;;;31.93;19.20;;;;;;;9.03;72.70;95391.38;4987238;28;20475;-68
2024/03/04 07:39:23;;;;;;;34.30;18.47;;;;;;;9.01;72.23;95394.06;4990549;28;20642;-67
2024/03/04 07:41:50;;;;;;;26.30;17.47;;;;;;;8.97;72.58;95396.91;4992299;28;20295;-67
2024/03/04 07:44:17;;;;;;;36.20;19.10;;;;;;;9.02;72.68;95397.50;4988037;28;20459;-67
2024/03/04 07:46:44;;;;;;;29.57;19.10;;;;;;;8.95;72.71;95396.16;4989921;28;20220;-68
2024/03/04 07:49:09;;;;;;;36.13;20.97;;;;;;;8.98;72.55;95401.25;4988191;28;20447;-68
2024/03/04 07:51:34;;;;;;;28.83;19.23;;;;;;;9.00;72.57;95396.75;4992113;28;20460;-67
2024/03/04 07:54:00;;;;;;;23.93;16.70;;;;;;;9.11;72.03;95404.88;4994532;28;20292;-66
2024/03/04 07:56:25;;;;;;;29.90;18.70;;;;;;;8.99;72.57;95403.75;5000041;28;20302;-66
2024/03/04 07:58:51;;;;;;;39.03;19.37;;;;;;;9.06;72.66;95405.09;4992313;28;20592;-71
2024/03/04 08:01:16;;;;;;;27.87;18.40;;;;;;;9.08;72.34;95408.50;4996586;28;20184;-71
2024/03/04 08:03:42;;;;;;;26.40;17.73;;;;;;;9.05;72.57;95415.69;4987679;28;20208;-70
2024/03/04 08:06:08;;;;;;;28.37;16.73;;;;;;;9.14;71.61;95416.94;4991764;28;20188;-70
2024/03/04 08:08:33;;;;;;;26.80;17.13;;;;;;;9.06;72.60;95420.81;4988131;28;20756;-70
2024/03/04 08:10:59;;;;;;;28.90;18.20;;;;;;;9.21;71.68;95427.03;4987173;28;20467;-70
2024/03/04 08:13:25;;;;;;;29.33;18.10;;;;;;;9.14;72.32;95430.03;4987199;28;20268;-70
2024/03/04 08:15:52;;;;;;;27.87;19.50;;;;;;;9.22;72.12;95431.31;4988273;28;20177;-69
2024/03/04 08:18:17;;;;;;;25.97;17.70;;;;;;;9.09;72.07;95438.13;4983597;28;20443;-70
2024/03/04 08:20:43;;;;;;;29.30;19.30;;;;;;;9.19;71.88;95441.09;4981793;28;20487;-70
2024/03/04 08:23:09;;;;;;;26.40;17.73;;;;;;;9.18;71.92;95449.88;4981719;28;20213;-70
2024/03/04 08:25:34;;;;;;;26.60;16.83;;;;;;;9.25;71.69;95443.38;4984434;28;20255;-70
2024/03/04 08:28:01;;;;;;;22.53;16.23;;;;;;;9.29;71.83;95439.69;4981247;28;20192;-69
2024/03/04 08:30:26;;;;;;;22.87;17.20;;;;;;;9.25;71.83;95446.00;4970021;28;20211;-70
2024/03/04 08:32:53;;;;;;;25.90;18.30;;;;;;;9.25;71.79;95441.59;4991548;28;20486;-70
2024/03/04 08:35:19;;;;;;;22.90;16.30;;;;;;;9.23;71.32;95447.84;4987931;28;20188;-70
2024/03/04 08:37:44;;;;;;;37.60;17.97;;;;;;;9.09;72.52;95448.59;4986598;28;20485;-69
2024/03/04 08:40:12;;;;;;;27.10;16.90;;;;;;;9.25;71.56;95444.22;4985998;28;20873;-70
2024/03/04 08:42:39;;;;;;;33.27;18.00;;;;;;;9.10;72.14;95450.28;4982788;28;20339;-69
2024/03/04 08:45:06;;;;;;;24.80;16.33;;;;;;;9.16;72.27;95451.72;4983211;28;20432;-69
2024/03/04 08:47:31;;;;;;;26.20;17.20;;;;;;;9.20;72.32;95458.50;4984247;28;20884;-70
2024/03/04 08:49:57;;;;;;;27.20;17.77;;;;;;;9.19;72.07;95455.03;4982891;28;20438;-70
2024/03/04 08:52:23;;;;;;;26.10;17.60;;;;;;;9.22;72.30;95465.34;4984167;28;20702;-69
2024/03/04 08:54:48;;;;;;;27.63;16.77;;;;;;;9.25;71.68;95472.19;4984414;28;20187;-70
2024/03/04 08:57:14;;;;;;;26.80;17.70;;;;;;;9.18;71.98;95471.66;4983787;28;20436;-70
2024/03/04 08:59:41;;;;;;;30.67;16.43;;;;;;;9.29;71.67;95473.72;4982063;28;20208;-69
2024/03/04 09:02:06;;;;;;;29.50;17.37;;;;;;;9.43;71.31;95473.81;4977303;28;20193;-69
2024/03/04 09:04:32;;;;;;;24.53;16.67;;;;;;;9.59;70.87;95475.59;4981254;28;20498;-70
2024/03/04 09:06:58;;;;;;;22.70;15.17;;;;;;;9.52;70.74;95481.19;4981446;28;20585;-69
2024/03/04 09:09:23;;;;;;;29.67;16.07;;;;;;;9.40;71.03;95487.09;4967692;28;20216;-70
2024/03/04 09:11:51;;;;;;;20.50;14.87;;;;;;;9.36;70.85;95480.31;4986384;28;20998;-70
2024/03/04 09:14:17;;;;;;;20.53;14.27;;;;;;;9.49;70.52;95481.31;4981332;28;20266;-71
2024/03/04 09:16:42;;;;;;;22.30;14.10;;;;;;;9.50;70.41;95476.97;4986437;28;20440;-70
2024/03/04 09:19:10;;;;;;;18.60;12.80;;;;;;;9.53;70.56;95480.25;4974868;28;20252;-70
2024/03/04 09:21:35;;;;;;;22.00;14.30;;;;;;;9.69;69.80;95477.63;4983713;28;20977;-70
2024/03/04 09:24:01;;;;;;;18.87;13.63;;;;;;;9.64;70.03;95491.91;4985554;28;20515;-69
2024/03/04 09:26:26;;;;;;;24.00;15.20;;;;;;;9.69;70.17;95489.88;4982533;28;20774;-69
2024/03/04 09:28:52;;;;;;;23.70;15.13;;;;;;;9.73;69.69;95496.63;4982946;28;20180;-69
2024/03/04 09:31:18;;;;;;;20.20;13.50;;;;;;;9.72;68.88;95494.94;4981256;28;20201;-70
2024/03/04 09:33:44;;;;;;;18.63;13.13;;;;;;;9.69;68.93;95492.50;4976845;28;20213;-71
2024/03/04 09:36:09;;;;;;;23.33;13.77;;;;;;;9.68;69.10;95501.28;4978855;28;20192;-70
2024/03/04 09:38:35;;;;;;;23.07;13.87;;;;;;;9.67;68.90;95510.09;4984252;28;20436;-70
2024/03/04 09:41:02;;;;;;;17.40;12.37;;;;;;;9.70;68.53;95507.28;4982771;28;20184;-70
2024/03/04 09:43:32;;;;;;;19.13;13.70;;;;;;;9.54;69.11;95509.88;4981638;28;20208;-69
2024/03/04 09:46:00;;;;;;;24.53;15.97;;;;;;;9.50;69.82;95517.06;4981920;28;20482;-69
2024/03/04 09:48:26;;;;;;;20.60;14.60;;;;;;;9.63;68.89;95509.38;4975700;28;20438;-70
2024/03/04 09:50:54;;;;;;;19.53;13.50;;;;;;;9.60;69.11;95509.56;4984344;28;20467;-71
2024/03/04 09:53:21;;;;;;;25.33;13.57;;;;;;;9.60;69.37;95516.59;4984059;28;20459;-69
2024/03/04 09:55:47;;;;;;;20.63;14.37;;;;;;;9.49;69.89;95520.59;4982226;28;20479;-71
2024/03/04 09:58:12;;;;;;;22.43;14.27;;;;;;;9.58;69.79;95526.28;4983265;28;20456;-69
2024/03/04 10:00:40;;;;;;;18.10;12.67;;;;;;;9.60;69.74;95519.19;4978396;28;20195;-70
2024/03/04 10:03:07;;;;;;;24.77;16.50;;;;;;;9.69;69.74;95514.31;4977429;28;20224;-72
2024/03/04 10:05:34;;;;;;;17.70;13.30;;;;;;;9.67;69.60;95516.16;4980911;28;20474;-70
2024/03/04 10:07:59;;;;;;;18.73;14.40;;;;;;;9.86;69.26;95523.03;4980661;28;20550;-70
2024/03/04 10:10:25;;;;;;;17.80;14.30;;;;;;;9.83;68.97;95524.03;4986485;28;20535;-69
2024/03/04 10:12:51;;;;;;;20.17;13.60;;;;;;;9.86;69.32;95523.84;4986357;28;20184;-70
2024/03/04 10:15:20;;;;;;;20.43;13.60;;;;;;;9.72;69.31;95527.22;4986812;28;20215;-69
2024/03/04 10:17:47;;;;;;;19.43;12.90;;;;;;;9.70;69.68;95525.63;4985734;28;20247;-70
2024/03/04 10:20:13;;;;;;;17.60;12.70;;;;;;;9.61;70.08;95531.34;4986108;28;20411;-70
2024/03/04 10:22:39;;;;;;;19.20;14.40;;;;;;;9.59;70.20;95534.09;4980871;28;20451;-71
2024/03/04 10:25:10;;;;;;;20.67;14.13;;;;;;;9.70;69.86;95536.09;4986130;28;20927;-71
2024/03/04 10:27:36;;;;;;;19.87;13.63;;;;;;;9.67;69.90;95536.28;4986056;28;20419;-72
2024/03/04 10:30:09;;;;;;;25.83;15.20;;;;;;;9.78;69.79;95533.94;4986046;28;20411;-70
2024/03/04 10:32:57;;;;;;;26.30;16.67;;;;;;;9.84;69.81;95536.19;4986411;28;20836;-69
2024/03/04 10:35:27;;;;;;;23.10;15.70;;;;;;;9.78;70.13;95538.28;4986158;28;20427;-70
2024/03/04 10:38:01;;;;;;;19.30;14.90;;;;;;;9.77;69.83;95540.06;4981786;28;20431;-69
2024/03/04 10:40:27;;;;;;;36.27;15.97;;;;;;;9.78;69.87;95546.16;4985891;28;20397;-70
2024/03/04 10:42:56;;;;;;;28.80;13.80;;;;;;;9.83;70.42;95544.16;4986296;28;20428;-69
2024/03/04 10:45:22;;;;;;;24.53;15.20;;;;;;;9.90;69.60;95540.28;4986250;28;20436;-69
2024/03/04 10:47:47;;;;;;;25.20;15.77;;;;;;;9.80;70.15;95546.94;4985955;28;20893;-69
2024/03/04 10:50:14;;;;;;;20.77;14.60;;;;;;;9.67;70.78;95552.84;4985304;28;20200;-70
2024/03/04 10:52:40;;;;;;;23.40;14.00;;;;;;;9.71;70.75;95556.16;4986121;28;20189;-69
2024/03/04 10:55:06;;;;;;;23.20;15.47;;;;;;;9.74;70.63;95553.34;4967072;28;20479;-70
2024/03/04 10:57:33;;;;;;;22.77;14.30;;;;;;;9.85;70.04;95550.13;4982458;28;20181;-69
2024/03/04 11:00:17;;;;;;;28.90;17.57;;;;;;;9.87;69.55;95556.13;4979087;28;20185;-69
2024/03/04 11:02:48;;;;;;;27.33;18.17;;;;;;;9.88;69.48;95558.69;4986130;28;20443;-68
2024/03/04 11:05:13;;;;;;;30.73;19.03;;;;;;;9.86;69.47;95551.84;4986580;28;20646;-70
2024/03/04 11:07:44;;;;;;;23.93;16.47;;;;;;;9.92;69.54;95554.97;4985409;28;20431;-70
2024/03/04 11:10:37;;;;;;;28.40;16.40;;;;;;;9.99;69.02;95554.63;4989457;28;20785;-70
2024/03/04 11:13:09;;;;;;;23.03;14.10;;;;;;;9.91;69.42;95555.06;4965978;28;20820;-70
2024/03/04 11:15:42;;;;;;;24.63;13.40;;;;;;;9.89;69.50;95547.25;4989397;28;20775;-71
2024/03/04 11:18:18;;;;;;;35.37;15.47;;;;;;;10.00;68.99;95544.06;4983124;28;20459;-71
2024/03/04 11:20:46;;;;;;;48.60;15.33;;;;;;;10.02;68.53;95551.84;4990844;28;20482;-70
2024/03/04 11:23:14;;;;;;;20.17;13.17;;;;;;;9.95;69.23;95551.34;4990174;28;20466;-70